sensor_id;sensor_type;location;lat;lon;timestamp;P1;durP1;ratioP1;P2;durP2;ratioP2
70337;SDS011;57757;53.198;19.646;2023-07-08T00:01:13;8.20;;;2.90;;
70337;SDS011;57757;53.198;19.646;2023-07-08T00:03:45;6.30;;;2.40;;
70337;SDS011;57757;53.198;19.646;2023-07-08T00:06:17;7.30;;;2.50;;
70337;SDS011;57757;53.198;19.646;2023-07-08T00:08:45;7.30;;;2.40;;
70337;SDS011;57757;53.198;19.646;2023-07-08T00:11:12;5.90;;;2.20;;
70337;SDS011;57757;53.198;19.646;2023-07-08T00:13:39;7.90;;;2.70;;
70337;SDS011;57757;53.198;19.646;2023-07-08T00:16:08;6.70;;;2.50;;
70337;SDS011;57757;53.198;19.646;2023-07-08T00:18:36;6.40;;;2.60;;
70337;SDS011;57757;53.198;19.646;2023-07-08T00:21:04;7.20;;;2.40;;
70337;SDS011;57757;53.198;19.646;2023-07-08T00:23:34;8.30;;;2.40;;
70337;SDS011;57757;53.198;19.646;2023-07-08T00:26:02;6.90;;;2.40;;
70337;SDS011;57757;53.198;19.646;2023-07-08T00:28:35;7.70;;;2.60;;
70337;SDS011;57757;53.198;19.646;2023-07-08T00:31:01;6.70;;;2.30;;
70337;SDS011;57757;53.198;19.646;2023-07-08T00:33:28;6.80;;;2.20;;
70337;SDS011;57757;53.198;19.646;2023-07-08T00:35:54;7.70;;;2.40;;
70337;SDS011;57757;53.198;19.646;2023-07-08T00:38:21;5.90;;;2.20;;
70337;SDS011;57757;53.198;19.646;2023-07-08T00:46:26;6.70;;;2.40;;
70337;SDS011;57757;53.198;19.646;2023-07-08T00:51:39;8.90;;;2.80;;
70337;SDS011;57757;53.198;19.646;2023-07-08T00:54:12;6.80;;;2.70;;
70337;SDS011;57757;53.198;19.646;2023-07-08T00:59:39;9.10;;;2.40;;
70337;SDS011;57757;53.198;19.646;2023-07-08T01:02:11;6.40;;;2.70;;
70337;SDS011;57757;53.198;19.646;2023-07-08T01:04:43;8.20;;;2.60;;
70337;SDS011;57757;53.198;19.646;2023-07-08T01:07:16;7.30;;;2.30;;
70337;SDS011;57757;53.198;19.646;2023-07-08T01:09:48;8.30;;;2.60;;
70337;SDS011;57757;53.198;19.646;2023-07-08T01:12:21;7.00;;;2.30;;
70337;SDS011;57757;53.198;19.646;2023-07-08T01:14:53;6.10;;;2.30;;
70337;SDS011;57757;53.198;19.646;2023-07-08T01:17:21;6.70;;;2.50;;
70337;SDS011;57757;53.198;19.646;2023-07-08T01:19:48;6.50;;;2.50;;
70337;SDS011;57757;53.198;19.646;2023-07-08T01:22:17;6.90;;;2.50;;
70337;SDS011;57757;53.198;19.646;2023-07-08T01:24:44;6.30;;;2.10;;
70337;SDS011;57757;53.198;19.646;2023-07-08T01:27:15;7.40;;;2.30;;
70337;SDS011;57757;53.198;19.646;2023-07-08T01:29:43;8.20;;;2.60;;
70337;SDS011;57757;53.198;19.646;2023-07-08T01:32:13;5.40;;;2.00;;
70337;SDS011;57757;53.198;19.646;2023-07-08T01:34:43;6.80;;;2.10;;
70337;SDS011;57757;53.198;19.646;2023-07-08T01:37:27;7.00;;;1.90;;
70337;SDS011;57757;53.198;19.646;2023-07-08T01:39:55;6.70;;;1.90;;
70337;SDS011;57757;53.198;19.646;2023-07-08T01:42:21;7.90;;;2.20;;
70337;SDS011;57757;53.198;19.646;2023-07-08T01:44:48;7.40;;;2.10;;
70337;SDS011;57757;53.198;19.646;2023-07-08T01:47:16;5.60;;;2.00;;
70337;SDS011;57757;53.198;19.646;2023-07-08T01:49:46;6.80;;;2.30;;
70337;SDS011;57757;53.198;19.646;2023-07-08T01:52:14;6.70;;;2.10;;
70337;SDS011;57757;53.198;19.646;2023-07-08T01:54:42;6.70;;;2.20;;
70337;SDS011;57757;53.198;19.646;2023-07-08T01:57:08;8.90;;;2.30;;
70337;SDS011;57757;53.198;19.646;2023-07-08T01:59:34;7.30;;;2.10;;
70337;SDS011;57757;53.198;19.646;2023-07-08T02:02:00;7.30;;;1.80;;
70337;SDS011;57757;53.198;19.646;2023-07-08T02:04:27;7.80;;;2.40;;
70337;SDS011;57757;53.198;19.646;2023-07-08T02:06:56;8.60;;;2.70;;
70337;SDS011;57757;53.198;19.646;2023-07-08T02:09:24;8.00;;;3.10;;
70337;SDS011;57757;53.198;19.646;2023-07-08T02:11:52;7.00;;;2.70;;
70337;SDS011;57757;53.198;19.646;2023-07-08T02:14:18;10.30;;;3.30;;
70337;SDS011;57757;53.198;19.646;2023-07-08T02:16:45;9.30;;;2.90;;
70337;SDS011;57757;53.198;19.646;2023-07-08T02:19:11;9.20;;;2.90;;
70337;SDS011;57757;53.198;19.646;2023-07-08T02:21:37;7.20;;;2.40;;
70337;SDS011;57757;53.198;19.646;2023-07-08T02:24:04;7.30;;;2.20;;
70337;SDS011;57757;53.198;19.646;2023-07-08T02:26:31;7.70;;;2.30;;
70337;SDS011;57757;53.198;19.646;2023-07-08T02:28:58;6.10;;;2.00;;
70337;SDS011;57757;53.198;19.646;2023-07-08T02:31:25;6.30;;;2.30;;
70337;SDS011;57757;53.198;19.646;2023-07-08T02:33:52;8.40;;;2.40;;
70337;SDS011;57757;53.198;19.646;2023-07-08T02:36:18;7.40;;;2.30;;
70337;SDS011;57757;53.198;19.646;2023-07-08T02:38:45;6.50;;;2.60;;
70337;SDS011;57757;53.198;19.646;2023-07-08T02:41:11;6.60;;;2.10;;
70337;SDS011;57757;53.198;19.646;2023-07-08T02:43:38;8.40;;;2.40;;
70337;SDS011;57757;53.198;19.646;2023-07-08T02:46:04;6.90;;;2.30;;
70337;SDS011;57757;53.198;19.646;2023-07-08T02:48:30;7.50;;;2.00;;
70337;SDS011;57757;53.198;19.646;2023-07-08T02:51:00;5.80;;;2.30;;
70337;SDS011;57757;53.198;19.646;2023-07-08T02:53:27;8.10;;;2.20;;
70337;SDS011;57757;53.198;19.646;2023-07-08T02:55:54;7.00;;;2.10;;
70337;SDS011;57757;53.198;19.646;2023-07-08T02:58:20;6.70;;;2.00;;
70337;SDS011;57757;53.198;19.646;2023-07-08T03:00:52;6.10;;;2.10;;
70337;SDS011;57757;53.198;19.646;2023-07-08T03:03:19;7.30;;;2.10;;
70337;SDS011;57757;53.198;19.646;2023-07-08T03:08:31;6.60;;;2.10;;
70337;SDS011;57757;53.198;19.646;2023-07-08T03:10:59;7.30;;;2.30;;
70337;SDS011;57757;53.198;19.646;2023-07-08T03:13:27;6.10;;;2.00;;
70337;SDS011;57757;53.198;19.646;2023-07-08T03:15:54;6.40;;;2.20;;
70337;SDS011;57757;53.198;19.646;2023-07-08T03:18:21;7.10;;;2.10;;
70337;SDS011;57757;53.198;19.646;2023-07-08T03:20:49;5.90;;;1.80;;
70337;SDS011;57757;53.198;19.646;2023-07-08T03:23:15;5.80;;;2.20;;
70337;SDS011;57757;53.198;19.646;2023-07-08T03:25:41;8.00;;;2.20;;
70337;SDS011;57757;53.198;19.646;2023-07-08T03:28:08;6.20;;;2.30;;
70337;SDS011;57757;53.198;19.646;2023-07-08T03:30:43;6.30;;;2.00;;
70337;SDS011;57757;53.198;19.646;2023-07-08T03:33:10;6.20;;;2.40;;
70337;SDS011;57757;53.198;19.646;2023-07-08T03:35:37;6.20;;;2.10;;
70337;SDS011;57757;53.198;19.646;2023-07-08T03:38:06;6.40;;;2.40;;
70337;SDS011;57757;53.198;19.646;2023-07-08T03:40:32;6.30;;;2.20;;
70337;SDS011;57757;53.198;19.646;2023-07-08T03:42:58;6.00;;;2.40;;
70337;SDS011;57757;53.198;19.646;2023-07-08T03:45:25;6.20;;;1.90;;
70337;SDS011;57757;53.198;19.646;2023-07-08T03:47:52;7.80;;;2.50;;
70337;SDS011;57757;53.198;19.646;2023-07-08T03:50:19;6.80;;;2.30;;
70337;SDS011;57757;53.198;19.646;2023-07-08T03:52:47;6.00;;;2.20;;
70337;SDS011;57757;53.198;19.646;2023-07-08T03:55:15;5.90;;;2.00;;
70337;SDS011;57757;53.198;19.646;2023-07-08T03:57:41;7.40;;;2.50;;
70337;SDS011;57757;53.198;19.646;2023-07-08T04:00:08;7.00;;;2.10;;
70337;SDS011;57757;53.198;19.646;2023-07-08T04:02:35;9.60;;;2.50;;
70337;SDS011;57757;53.198;19.646;2023-07-08T04:05:02;6.40;;;2.20;;
70337;SDS011;57757;53.198;19.646;2023-07-08T04:07:29;7.30;;;2.40;;
70337;SDS011;57757;53.198;19.646;2023-07-08T04:09:55;6.90;;;2.10;;
70337;SDS011;57757;53.198;19.646;2023-07-08T04:12:21;6.10;;;2.20;;
70337;SDS011;57757;53.198;19.646;2023-07-08T04:14:47;6.30;;;2.20;;
70337;SDS011;57757;53.198;19.646;2023-07-08T04:17:13;6.30;;;2.10;;
70337;SDS011;57757;53.198;19.646;2023-07-08T04:19:40;6.50;;;2.30;;
70337;SDS011;57757;53.198;19.646;2023-07-08T04:22:10;6.60;;;2.10;;
70337;SDS011;57757;53.198;19.646;2023-07-08T04:24:36;6.20;;;2.30;;
70337;SDS011;57757;53.198;19.646;2023-07-08T04:27:02;5.80;;;2.10;;
70337;SDS011;57757;53.198;19.646;2023-07-08T04:29:29;6.60;;;2.20;;
70337;SDS011;57757;53.198;19.646;2023-07-08T04:31:55;5.80;;;1.90;;
70337;SDS011;57757;53.198;19.646;2023-07-08T04:34:21;6.30;;;2.20;;
70337;SDS011;57757;53.198;19.646;2023-07-08T04:36:47;6.80;;;2.30;;
70337;SDS011;57757;53.198;19.646;2023-07-08T04:39:13;6.70;;;2.30;;
70337;SDS011;57757;53.198;19.646;2023-07-08T04:41:39;7.50;;;2.10;;
70337;SDS011;57757;53.198;19.646;2023-07-08T04:44:07;6.40;;;1.80;;
70337;SDS011;57757;53.198;19.646;2023-07-08T04:49:05;5.70;;;2.10;;
70337;SDS011;57757;53.198;19.646;2023-07-08T04:51:32;6.30;;;2.20;;
70337;SDS011;57757;53.198;19.646;2023-07-08T04:53:58;7.80;;;1.90;;
70337;SDS011;57757;53.198;19.646;2023-07-08T04:56:25;6.40;;;2.20;;
70337;SDS011;57757;53.198;19.646;2023-07-08T04:59:00;6.60;;;2.20;;
70337;SDS011;57757;53.198;19.646;2023-07-08T05:01:27;5.90;;;2.10;;
70337;SDS011;57757;53.198;19.646;2023-07-08T05:03:54;6.90;;;2.00;;
70337;SDS011;57757;53.198;19.646;2023-07-08T05:06:20;6.70;;;2.30;;
70337;SDS011;57757;53.198;19.646;2023-07-08T05:08:46;6.40;;;2.20;;
70337;SDS011;57757;53.198;19.646;2023-07-08T05:11:12;7.60;;;2.10;;
70337;SDS011;57757;53.198;19.646;2023-07-08T05:13:38;7.50;;;2.40;;
70337;SDS011;57757;53.198;19.646;2023-07-08T05:16:04;5.70;;;2.10;;
70337;SDS011;57757;53.198;19.646;2023-07-08T05:18:30;6.90;;;2.40;;
70337;SDS011;57757;53.198;19.646;2023-07-08T05:20:56;7.30;;;2.50;;
70337;SDS011;57757;53.198;19.646;2023-07-08T05:23:22;7.10;;;2.70;;
70337;SDS011;57757;53.198;19.646;2023-07-08T05:25:49;7.10;;;2.40;;
70337;SDS011;57757;53.198;19.646;2023-07-08T05:28:16;6.90;;;2.30;;
70337;SDS011;57757;53.198;19.646;2023-07-08T05:30:42;9.10;;;2.50;;
70337;SDS011;57757;53.198;19.646;2023-07-08T05:33:08;6.60;;;2.20;;
70337;SDS011;57757;53.198;19.646;2023-07-08T05:35:35;7.60;;;2.80;;
70337;SDS011;57757;53.198;19.646;2023-07-08T05:38:01;7.50;;;2.20;;
70337;SDS011;57757;53.198;19.646;2023-07-08T05:40:27;7.50;;;2.20;;
70337;SDS011;57757;53.198;19.646;2023-07-08T05:42:53;7.80;;;2.40;;
70337;SDS011;57757;53.198;19.646;2023-07-08T05:45:19;6.30;;;2.20;;
70337;SDS011;57757;53.198;19.646;2023-07-08T05:47:45;8.10;;;2.40;;
70337;SDS011;57757;53.198;19.646;2023-07-08T05:50:12;9.70;;;2.40;;
70337;SDS011;57757;53.198;19.646;2023-07-08T05:52:38;8.50;;;2.80;;
70337;SDS011;57757;53.198;19.646;2023-07-08T05:55:04;10.60;;;2.80;;
70337;SDS011;57757;53.198;19.646;2023-07-08T05:57:30;6.90;;;2.70;;
70337;SDS011;57757;53.198;19.646;2023-07-08T05:59:57;9.70;;;2.60;;
70337;SDS011;57757;53.198;19.646;2023-07-08T06:02:23;7.70;;;2.60;;
70337;SDS011;57757;53.198;19.646;2023-07-08T06:04:51;6.20;;;2.40;;
70337;SDS011;57757;53.198;19.646;2023-07-08T06:07:17;7.00;;;2.30;;
70337;SDS011;57757;53.198;19.646;2023-07-08T06:09:44;6.50;;;2.60;;
70337;SDS011;57757;53.198;19.646;2023-07-08T06:12:10;8.00;;;2.60;;
70337;SDS011;57757;53.198;19.646;2023-07-08T06:14:37;6.90;;;2.50;;
70337;SDS011;57757;53.198;19.646;2023-07-08T06:17:04;7.70;;;2.50;;
70337;SDS011;57757;53.198;19.646;2023-07-08T06:19:31;6.30;;;2.50;;
70337;SDS011;57757;53.198;19.646;2023-07-08T06:21:58;7.40;;;2.70;;
70337;SDS011;57757;53.198;19.646;2023-07-08T06:24:44;6.90;;;2.70;;
70337;SDS011;57757;53.198;19.646;2023-07-08T06:27:10;8.60;;;2.80;;
70337;SDS011;57757;53.198;19.646;2023-07-08T06:29:36;8.10;;;2.80;;
70337;SDS011;57757;53.198;19.646;2023-07-08T06:32:02;7.10;;;2.70;;
70337;SDS011;57757;53.198;19.646;2023-07-08T06:34:28;6.50;;;2.80;;
70337;SDS011;57757;53.198;19.646;2023-07-08T06:36:54;7.80;;;2.70;;
70337;SDS011;57757;53.198;19.646;2023-07-08T06:39:20;8.80;;;2.90;;
70337;SDS011;57757;53.198;19.646;2023-07-08T06:41:46;7.30;;;2.60;;
70337;SDS011;57757;53.198;19.646;2023-07-08T06:44:12;6.70;;;2.70;;
70337;SDS011;57757;53.198;19.646;2023-07-08T06:46:38;7.30;;;2.80;;
70337;SDS011;57757;53.198;19.646;2023-07-08T06:49:05;7.10;;;3.30;;
70337;SDS011;57757;53.198;19.646;2023-07-08T06:51:34;6.40;;;2.50;;
70337;SDS011;57757;53.198;19.646;2023-07-08T06:54:01;7.10;;;2.90;;
70337;SDS011;57757;53.198;19.646;2023-07-08T06:56:37;7.80;;;2.40;;
70337;SDS011;57757;53.198;19.646;2023-07-08T06:59:04;6.20;;;2.40;;
70337;SDS011;57757;53.198;19.646;2023-07-08T07:01:31;7.80;;;2.30;;
70337;SDS011;57757;53.198;19.646;2023-07-08T07:03:57;7.60;;;2.40;;
70337;SDS011;57757;53.198;19.646;2023-07-08T07:06:25;7.80;;;2.50;;
70337;SDS011;57757;53.198;19.646;2023-07-08T07:08:51;7.30;;;2.30;;
70337;SDS011;57757;53.198;19.646;2023-07-08T07:11:17;7.00;;;2.80;;
70337;SDS011;57757;53.198;19.646;2023-07-08T07:13:45;6.30;;;2.30;;
70337;SDS011;57757;53.198;19.646;2023-07-08T07:16:12;6.90;;;2.50;;
70337;SDS011;57757;53.198;19.646;2023-07-08T07:18:38;6.60;;;2.20;;
70337;SDS011;57757;53.198;19.646;2023-07-08T07:21:04;7.20;;;2.30;;
70337;SDS011;57757;53.198;19.646;2023-07-08T07:23:33;7.20;;;2.60;;
70337;SDS011;57757;53.198;19.646;2023-07-08T07:25:59;6.60;;;2.30;;
70337;SDS011;57757;53.198;19.646;2023-07-08T07:28:26;8.70;;;2.70;;
70337;SDS011;57757;53.198;19.646;2023-07-08T07:30:56;7.00;;;1.90;;
70337;SDS011;57757;53.198;19.646;2023-07-08T07:33:25;8.10;;;2.40;;
70337;SDS011;57757;53.198;19.646;2023-07-08T07:35:51;8.00;;;2.10;;
70337;SDS011;57757;53.198;19.646;2023-07-08T07:38:18;8.20;;;2.40;;
70337;SDS011;57757;53.198;19.646;2023-07-08T07:40:44;6.50;;;2.30;;
70337;SDS011;57757;53.198;19.646;2023-07-08T07:43:11;10.40;;;2.20;;
70337;SDS011;57757;53.198;19.646;2023-07-08T07:45:38;6.60;;;2.30;;
70337;SDS011;57757;53.198;19.646;2023-07-08T07:48:04;10.80;;;2.50;;
70337;SDS011;57757;53.198;19.646;2023-07-08T07:50:30;6.30;;;2.10;;
70337;SDS011;57757;53.198;19.646;2023-07-08T07:52:57;7.20;;;2.50;;
70337;SDS011;57757;53.198;19.646;2023-07-08T07:55:23;8.50;;;2.00;;
70337;SDS011;57757;53.198;19.646;2023-07-08T07:57:49;6.70;;;2.30;;
70337;SDS011;57757;53.198;19.646;2023-07-08T08:00:15;8.60;;;2.50;;
70337;SDS011;57757;53.198;19.646;2023-07-08T08:02:41;6.70;;;2.00;;
70337;SDS011;57757;53.198;19.646;2023-07-08T08:05:08;7.00;;;1.90;;
70337;SDS011;57757;53.198;19.646;2023-07-08T08:07:34;7.40;;;2.50;;
70337;SDS011;57757;53.198;19.646;2023-07-08T08:10:02;6.40;;;2.20;;
70337;SDS011;57757;53.198;19.646;2023-07-08T08:12:29;7.20;;;2.30;;
70337;SDS011;57757;53.198;19.646;2023-07-08T08:15:10;6.50;;;2.20;;
70337;SDS011;57757;53.198;19.646;2023-07-08T08:17:36;6.50;;;2.30;;
70337;SDS011;57757;53.198;19.646;2023-07-08T08:20:02;6.60;;;2.20;;
70337;SDS011;57757;53.198;19.646;2023-07-08T08:22:29;8.30;;;2.30;;
70337;SDS011;57757;53.198;19.646;2023-07-08T08:24:55;8.60;;;2.40;;
70337;SDS011;57757;53.198;19.646;2023-07-08T08:27:21;7.80;;;3.10;;
70337;SDS011;57757;53.198;19.646;2023-07-08T08:29:47;6.40;;;2.00;;
70337;SDS011;57757;53.198;19.646;2023-07-08T08:32:13;7.00;;;2.50;;
70337;SDS011;57757;53.198;19.646;2023-07-08T08:34:39;7.40;;;2.20;;
70337;SDS011;57757;53.198;19.646;2023-07-08T08:37:05;6.60;;;2.30;;
70337;SDS011;57757;53.198;19.646;2023-07-08T08:39:31;6.70;;;2.40;;
70337;SDS011;57757;53.198;19.646;2023-07-08T08:41:58;8.20;;;2.10;;
70337;SDS011;57757;53.198;19.646;2023-07-08T08:44:29;5.40;;;2.10;;
70337;SDS011;57757;53.198;19.646;2023-07-08T08:52:44;6.80;;;2.80;;
70337;SDS011;57757;53.198;19.646;2023-07-08T08:55:11;7.40;;;2.60;;
70337;SDS011;57757;53.198;19.646;2023-07-08T09:00:29;8.90;;;2.50;;
70337;SDS011;57757;53.198;19.646;2023-07-08T09:03:11;8.80;;;2.40;;
70337;SDS011;57757;53.198;19.646;2023-07-08T09:05:42;7.30;;;2.50;;
70337;SDS011;57757;53.198;19.646;2023-07-08T09:10:58;6.20;;;2.40;;
70337;SDS011;57757;53.198;19.646;2023-07-08T09:13:31;6.90;;;2.50;;
70337;SDS011;57757;53.198;19.646;2023-07-08T09:21:49;6.60;;;2.50;;
70337;SDS011;57757;53.198;19.646;2023-07-08T09:24:29;8.10;;;2.70;;
70337;SDS011;57757;53.198;19.646;2023-07-08T09:27:07;7.40;;;2.20;;
70337;SDS011;57757;53.198;19.646;2023-07-08T09:29:34;14.50;;;2.40;;
70337;SDS011;57757;53.198;19.646;2023-07-08T09:34:51;7.20;;;2.60;;
70337;SDS011;57757;53.198;19.646;2023-07-08T09:37:30;6.40;;;2.40;;
70337;SDS011;57757;53.198;19.646;2023-07-08T09:39:59;7.40;;;2.70;;
70337;SDS011;57757;53.198;19.646;2023-07-08T09:42:30;5.40;;;2.00;;
70337;SDS011;57757;53.198;19.646;2023-07-08T09:45:00;6.80;;;2.50;;
70337;SDS011;57757;53.198;19.646;2023-07-08T09:47:29;5.90;;;2.20;;
70337;SDS011;57757;53.198;19.646;2023-07-08T09:50:00;5.80;;;2.20;;
70337;SDS011;57757;53.198;19.646;2023-07-08T09:52:29;7.50;;;2.50;;
70337;SDS011;57757;53.198;19.646;2023-07-08T09:54:55;5.90;;;2.50;;
70337;SDS011;57757;53.198;19.646;2023-07-08T09:57:25;7.00;;;2.50;;
70337;SDS011;57757;53.198;19.646;2023-07-08T10:00:00;6.80;;;2.20;;
70337;SDS011;57757;53.198;19.646;2023-07-08T10:02:38;6.30;;;2.30;;
70337;SDS011;57757;53.198;19.646;2023-07-08T10:05:52;6.90;;;2.50;;
70337;SDS011;57757;53.198;19.646;2023-07-08T10:07:58;6.00;;;2.60;;
70337;SDS011;57757;53.198;19.646;2023-07-08T10:10:30;6.10;;;2.50;;
70337;SDS011;57757;53.198;19.646;2023-07-08T10:13:01;6.20;;;2.30;;
70337;SDS011;57757;53.198;19.646;2023-07-08T10:15:37;7.30;;;2.50;;
70337;SDS011;57757;53.198;19.646;2023-07-08T10:21:00;10.80;;;2.80;;
70337;SDS011;57757;53.198;19.646;2023-07-08T10:26:20;6.70;;;2.50;;
70337;SDS011;57757;53.198;19.646;2023-07-08T10:28:57;7.60;;;2.40;;
70337;SDS011;57757;53.198;19.646;2023-07-08T10:37:25;8.10;;;2.30;;
70337;SDS011;57757;53.198;19.646;2023-07-08T10:45:46;8.80;;;2.90;;
70337;SDS011;57757;53.198;19.646;2023-07-08T10:53:58;7.60;;;3.00;;
70337;SDS011;57757;53.198;19.646;2023-07-08T11:02:14;7.80;;;3.00;;
70337;SDS011;57757;53.198;19.646;2023-07-08T11:07:42;8.30;;;3.10;;
70337;SDS011;57757;53.198;19.646;2023-07-08T11:10:12;6.20;;;2.90;;
70337;SDS011;57757;53.198;19.646;2023-07-08T11:15:36;7.40;;;2.90;;
70337;SDS011;57757;53.198;19.646;2023-07-08T11:21:06;7.30;;;2.90;;
70337;SDS011;57757;53.198;19.646;2023-07-08T11:23:38;6.20;;;3.00;;
70337;SDS011;57757;53.198;19.646;2023-07-08T11:28:47;6.40;;;2.80;;
70337;SDS011;57757;53.198;19.646;2023-07-08T11:31:15;7.20;;;3.10;;
70337;SDS011;57757;53.198;19.646;2023-07-08T11:33:42;6.10;;;3.10;;
70337;SDS011;57757;53.198;19.646;2023-07-08T11:36:09;6.40;;;3.10;;
70337;SDS011;57757;53.198;19.646;2023-07-08T11:38:37;8.00;;;3.20;;
70337;SDS011;57757;53.198;19.646;2023-07-08T11:41:15;6.40;;;3.30;;
70337;SDS011;57757;53.198;19.646;2023-07-08T11:43:46;7.10;;;3.00;;
70337;SDS011;57757;53.198;19.646;2023-07-08T11:46:19;6.60;;;3.60;;
70337;SDS011;57757;53.198;19.646;2023-07-08T11:48:48;8.30;;;3.90;;
70337;SDS011;57757;53.198;19.646;2023-07-08T11:51:18;6.20;;;3.30;;
70337;SDS011;57757;53.198;19.646;2023-07-08T11:53:49;9.60;;;3.40;;
70337;SDS011;57757;53.198;19.646;2023-07-08T12:04:01;7.10;;;3.30;;
70337;SDS011;57757;53.198;19.646;2023-07-08T12:06:44;6.50;;;3.70;;
70337;SDS011;57757;53.198;19.646;2023-07-08T12:12:02;7.60;;;3.50;;
70337;SDS011;57757;53.198;19.646;2023-07-08T12:14:31;6.50;;;3.70;;
70337;SDS011;57757;53.198;19.646;2023-07-08T12:16:58;9.60;;;3.30;;
70337;SDS011;57757;53.198;19.646;2023-07-08T12:19:25;7.10;;;3.40;;
70337;SDS011;57757;53.198;19.646;2023-07-08T12:21:57;8.10;;;4.00;;
70337;SDS011;57757;53.198;19.646;2023-07-08T12:24:24;9.30;;;5.10;;
70337;SDS011;57757;53.198;19.646;2023-07-08T12:26:53;8.70;;;4.00;;
70337;SDS011;57757;53.198;19.646;2023-07-08T12:29:19;7.40;;;4.00;;
70337;SDS011;57757;53.198;19.646;2023-07-08T12:31:45;7.10;;;3.90;;
70337;SDS011;57757;53.198;19.646;2023-07-08T12:34:13;8.60;;;4.00;;
70337;SDS011;57757;53.198;19.646;2023-07-08T12:36:42;7.20;;;4.20;;
70337;SDS011;57757;53.198;19.646;2023-07-08T12:39:11;7.10;;;4.60;;
70337;SDS011;57757;53.198;19.646;2023-07-08T12:41:42;7.70;;;4.60;;
70337;SDS011;57757;53.198;19.646;2023-07-08T12:44:14;7.60;;;3.90;;
70337;SDS011;57757;53.198;19.646;2023-07-08T12:46:44;7.30;;;4.40;;
70337;SDS011;57757;53.198;19.646;2023-07-08T12:49:13;7.80;;;4.00;;
70337;SDS011;57757;53.198;19.646;2023-07-08T12:51:44;7.40;;;4.10;;
70337;SDS011;57757;53.198;19.646;2023-07-08T12:54:12;8.00;;;4.20;;
70337;SDS011;57757;53.198;19.646;2023-07-08T12:56:40;7.00;;;4.50;;
70337;SDS011;57757;53.198;19.646;2023-07-08T12:59:11;9.40;;;4.20;;
70337;SDS011;57757;53.198;19.646;2023-07-08T13:01:44;9.00;;;3.90;;
70337;SDS011;57757;53.198;19.646;2023-07-08T13:04:12;10.40;;;7.00;;
70337;SDS011;57757;53.198;19.646;2023-07-08T13:06:40;6.80;;;4.20;;
70337;SDS011;57757;53.198;19.646;2023-07-08T13:09:15;8.10;;;4.20;;
70337;SDS011;57757;53.198;19.646;2023-07-08T13:11:56;8.30;;;4.90;;
70337;SDS011;57757;53.198;19.646;2023-07-08T13:14:23;7.90;;;4.60;;
70337;SDS011;57757;53.198;19.646;2023-07-08T13:16:51;7.30;;;4.50;;
70337;SDS011;57757;53.198;19.646;2023-07-08T13:19:18;8.10;;;4.60;;
70337;SDS011;57757;53.198;19.646;2023-07-08T13:21:49;6.40;;;4.20;;
70337;SDS011;57757;53.198;19.646;2023-07-08T13:24:16;8.00;;;4.50;;
70337;SDS011;57757;53.198;19.646;2023-07-08T13:26:44;8.60;;;4.90;;
70337;SDS011;57757;53.198;19.646;2023-07-08T13:29:15;7.50;;;4.40;;
70337;SDS011;57757;53.198;19.646;2023-07-08T13:31:46;8.60;;;4.70;;
70337;SDS011;57757;53.198;19.646;2023-07-08T13:34:18;6.50;;;4.20;;
70337;SDS011;57757;53.198;19.646;2023-07-08T13:36:47;8.00;;;4.90;;
70337;SDS011;57757;53.198;19.646;2023-07-08T13:39:19;7.80;;;5.00;;
70337;SDS011;57757;53.198;19.646;2023-07-08T13:41:54;7.90;;;5.00;;
70337;SDS011;57757;53.198;19.646;2023-07-08T13:44:21;7.90;;;4.60;;
70337;SDS011;57757;53.198;19.646;2023-07-08T13:46:52;6.80;;;4.60;;
70337;SDS011;57757;53.198;19.646;2023-07-08T13:54:44;7.50;;;5.50;;
70337;SDS011;57757;53.198;19.646;2023-07-08T13:57:16;7.30;;;5.50;;
70337;SDS011;57757;53.198;19.646;2023-07-08T13:59:44;7.00;;;4.80;;
70337;SDS011;57757;53.198;19.646;2023-07-08T14:02:29;9.10;;;5.20;;
70337;SDS011;57757;53.198;19.646;2023-07-08T14:04:58;7.40;;;5.00;;
70337;SDS011;57757;53.198;19.646;2023-07-08T14:07:26;8.40;;;5.20;;
70337;SDS011;57757;53.198;19.646;2023-07-08T14:09:54;6.80;;;5.50;;
70337;SDS011;57757;53.198;19.646;2023-07-08T14:12:21;9.40;;;5.70;;
70337;SDS011;57757;53.198;19.646;2023-07-08T14:14:49;7.10;;;5.60;;
70337;SDS011;57757;53.198;19.646;2023-07-08T14:17:21;8.20;;;6.10;;
70337;SDS011;57757;53.198;19.646;2023-07-08T14:19:49;7.70;;;6.10;;
70337;SDS011;57757;53.198;19.646;2023-07-08T14:24:47;7.60;;;5.70;;
70337;SDS011;57757;53.198;19.646;2023-07-08T14:27:13;8.10;;;7.30;;
70337;SDS011;57757;53.198;19.646;2023-07-08T14:29:42;8.80;;;7.80;;
70337;SDS011;57757;53.198;19.646;2023-07-08T14:32:10;9.20;;;8.00;;
70337;SDS011;57757;53.198;19.646;2023-07-08T14:34:48;8.00;;;7.20;;
70337;SDS011;57757;53.198;19.646;2023-07-08T14:37:17;8.70;;;7.80;;
70337;SDS011;57757;53.198;19.646;2023-07-08T14:39:44;8.30;;;7.50;;
70337;SDS011;57757;53.198;19.646;2023-07-08T14:42:11;9.40;;;7.60;;
70337;SDS011;57757;53.198;19.646;2023-07-08T14:44:39;8.70;;;7.80;;
70337;SDS011;57757;53.198;19.646;2023-07-08T14:47:08;13.50;;;8.10;;
70337;SDS011;57757;53.198;19.646;2023-07-08T14:49:36;7.60;;;6.70;;
70337;SDS011;57757;53.198;19.646;2023-07-08T14:52:02;9.10;;;8.20;;
70337;SDS011;57757;53.198;19.646;2023-07-08T14:54:28;8.70;;;7.40;;
70337;SDS011;57757;53.198;19.646;2023-07-08T14:56:55;9.60;;;8.70;;
70337;SDS011;57757;53.198;19.646;2023-07-08T14:59:23;8.60;;;7.70;;
70337;SDS011;57757;53.198;19.646;2023-07-08T15:01:51;10.10;;;9.20;;
70337;SDS011;57757;53.198;19.646;2023-07-08T15:04:19;9.50;;;8.60;;
70337;SDS011;57757;53.198;19.646;2023-07-08T15:06:45;9.10;;;8.20;;
70337;SDS011;57757;53.198;19.646;2023-07-08T15:09:12;9.30;;;8.40;;
70337;SDS011;57757;53.198;19.646;2023-07-08T15:11:42;10.20;;;9.20;;
70337;SDS011;57757;53.198;19.646;2023-07-08T15:16:52;9.90;;;9.00;;
70337;SDS011;57757;53.198;19.646;2023-07-08T15:19:19;9.60;;;8.70;;
70337;SDS011;57757;53.198;19.646;2023-07-08T15:21:46;9.80;;;8.90;;
70337;SDS011;57757;53.198;19.646;2023-07-08T15:24:13;10.40;;;8.70;;
70337;SDS011;57757;53.198;19.646;2023-07-08T15:26:39;9.80;;;8.60;;
70337;SDS011;57757;53.198;19.646;2023-07-08T15:29:12;9.10;;;8.30;;
70337;SDS011;57757;53.198;19.646;2023-07-08T15:31:41;10.30;;;8.60;;
70337;SDS011;57757;53.198;19.646;2023-07-08T15:34:11;11.40;;;10.40;;
70337;SDS011;57757;53.198;19.646;2023-07-08T15:36:39;9.90;;;8.80;;
70337;SDS011;57757;53.198;19.646;2023-07-08T15:39:05;9.60;;;8.50;;
70337;SDS011;57757;53.198;19.646;2023-07-08T15:41:31;10.40;;;9.30;;
70337;SDS011;57757;53.198;19.646;2023-07-08T15:43:59;8.80;;;8.00;;
70337;SDS011;57757;53.198;19.646;2023-07-08T15:46:29;8.60;;;7.70;;
70337;SDS011;57757;53.198;19.646;2023-07-08T15:48:59;9.70;;;8.80;;
70337;SDS011;57757;53.198;19.646;2023-07-08T15:51:26;10.00;;;9.10;;
70337;SDS011;57757;53.198;19.646;2023-07-08T15:53:52;9.80;;;8.80;;
70337;SDS011;57757;53.198;19.646;2023-07-08T15:56:19;8.90;;;8.00;;
70337;SDS011;57757;53.198;19.646;2023-07-08T15:58:46;9.10;;;8.00;;
70337;SDS011;57757;53.198;19.646;2023-07-08T16:01:18;8.90;;;8.00;;
70337;SDS011;57757;53.198;19.646;2023-07-08T16:03:47;8.10;;;7.20;;
70337;SDS011;57757;53.198;19.646;2023-07-08T16:06:14;9.60;;;8.60;;
70337;SDS011;57757;53.198;19.646;2023-07-08T16:08:41;10.30;;;9.00;;
70337;SDS011;57757;53.198;19.646;2023-07-08T16:11:11;9.60;;;8.60;;
70337;SDS011;57757;53.198;19.646;2023-07-08T16:13:41;9.70;;;8.40;;
70337;SDS011;57757;53.198;19.646;2023-07-08T16:16:10;8.20;;;7.40;;
70337;SDS011;57757;53.198;19.646;2023-07-08T16:18:37;10.80;;;8.00;;